Time;durP1;ratioP1;P1;durP2;ratioP2;P2;SDS_P1;SDS_P2;PMS_P1;PMS_P2;Temp;Humidity;BMP_temperature;BMP_pressure;BME280_temperature;BME280_humidity;BME280_pressure;Samples;Min_cycle;Max_cycle;Signal;HPM_P1;HPM_P2
2022/03/04 00:02:12;;;;;;;49.80;24.05;;;;;;;1.05;59.85;100412.63;1723384;81;25506;-76
2022/03/04 00:04:39;;;;;;;49.80;25.60;;;;;;;1.07;59.87;100417.71;1722797;83;25721;-75
2022/03/04 00:07:06;;;;;;;52.50;25.85;;;;;;;1.07;60.09;100414.55;1693934;83;25267;-76
2022/03/04 00:09:34;;;;;;;55.63;26.37;;;;;;;1.07;60.22;100419.05;1722755;83;27313;-76
2022/03/04 00:12:07;;;;;;;54.55;26.48;;;;;;;1.09;60.28;100422.27;1722970;83;25647;-75
2022/03/04 00:14:33;;;;;;;52.53;25.35;;;;;;;1.09;60.18;100414.27;1722920;83;25773;-75
2022/03/04 00:17:00;;;;;;;54.77;24.25;;;;;;;1.10;60.35;100418.03;1722735;83;25708;-75
2022/03/04 00:19:26;;;;;;;51.48;23.80;;;;;;;1.11;60.50;100420.19;1722878;83;25619;-75
2022/03/04 00:21:53;;;;;;;53.52;25.97;;;;;;;1.11;60.52;100413.00;1694135;83;27306;-75
2022/03/04 00:24:23;;;;;;;57.50;26.90;;;;;;;1.13;60.44;100415.42;1722663;83;25606;-75
2022/03/04 00:26:50;;;;;;;54.80;25.68;;;;;;;1.14;60.57;100418.34;1722932;83;25509;-75
2022/03/04 00:29:17;;;;;;;56.58;25.92;;;;;;;1.15;60.82;100412.52;1723033;83;26184;-75
2022/03/04 00:31:44;;;;;;;57.00;26.33;;;;;;;1.15;61.01;100411.19;1714065;83;25572;-76
2022/03/04 00:34:11;;;;;;;49.45;25.95;;;;;;;1.15;60.97;100415.18;1692318;84;27417;-76
2022/03/04 00:36:40;;;;;;;53.75;25.82;;;;;;;1.15;61.16;100416.52;1692091;84;25604;-75
2022/03/04 00:39:11;;;;;;;53.08;25.55;;;;;;;1.16;61.09;100416.27;1692085;84;25589;-74
2022/03/04 00:41:37;;;;;;;61.33;28.67;;;;;;;1.18;61.30;100408.03;1670271;84;25797;-75
2022/03/04 00:44:06;;;;;;;56.53;27.32;;;;;;;1.18;61.38;100413.37;1692313;84;25648;-75
2022/03/04 00:46:34;;;;;;;63.87;29.55;;;;;;;1.17;61.49;100409.87;1670187;84;27529;-75
2022/03/04 00:49:00;;;;;;;59.42;28.20;;;;;;;1.19;61.53;100412.30;1692209;84;25625;-75
2022/03/04 00:51:27;;;;;;;56.18;29.40;;;;;;;1.19;61.62;100409.63;1692190;84;25765;-75
2022/03/04 00:53:53;;;;;;;58.38;28.35;;;;;;;1.19;61.72;100415.80;1692116;84;25791;-75
2022/03/04 00:56:21;;;;;;;56.65;28.40;;;;;;;1.20;61.84;100416.59;1692293;84;25623;-75
2022/03/04 00:58:48;;;;;;;65.55;29.10;;;;;;;1.18;61.92;100419.49;1692293;84;27361;-75
2022/03/04 01:01:16;;;;;;;57.48;28.35;;;;;;;1.20;62.01;100416.59;1693620;84;25542;-75
2022/03/04 01:03:42;;;;;;;57.38;26.85;;;;;;;1.20;62.18;100417.92;1693926;84;25677;-75
2022/03/04 01:06:09;;;;;;;55.78;26.65;;;;;;;1.20;62.26;100412.59;1694124;84;26183;-76
2022/03/04 01:08:35;;;;;;;58.48;27.80;;;;;;;1.21;62.34;100416.85;1693918;84;25477;-76
2022/03/04 01:11:02;;;;;;;52.30;26.42;;;;;;;1.21;62.42;100416.34;1694148;84;28224;-76
2022/03/04 01:13:28;;;;;;;56.10;27.42;;;;;;;1.21;62.44;100415.52;1693952;82;25770;-76
2022/03/04 01:15:55;;;;;;;58.48;28.32;;;;;;;1.22;62.55;100421.14;1693977;84;25788;-76
2022/03/04 01:18:23;;;;;;;58.50;28.52;;;;;;;1.21;62.52;100416.34;1694185;84;25758;-75
2022/03/04 01:20:49;;;;;;;54.53;27.02;;;;;;;1.22;62.67;100416.61;1694176;83;25684;-75
2022/03/04 01:23:15;;;;;;;63.38;28.80;;;;;;;1.22;62.78;100414.48;1694061;84;28226;-76
2022/03/04 01:25:42;;;;;;;59.65;27.52;;;;;;;1.22;62.77;100421.94;1693318;84;25789;-76
2022/03/04 01:28:09;;;;;;;61.25;29.57;;;;;;;1.23;62.79;100415.58;1692465;82;25383;-76
2022/03/04 01:30:35;;;;;;;59.85;29.40;;;;;;;1.23;62.80;100412.91;1692195;84;25764;-75
2022/03/04 01:33:02;;;;;;;58.15;29.55;;;;;;;1.24;62.79;100419.04;1666293;84;25645;-76
2022/03/04 01:35:29;;;;;;;58.42;28.83;;;;;;;1.25;62.41;100420.13;1695149;82;27332;-75
2022/03/04 01:37:55;;;;;;;59.60;27.00;;;;;;;1.27;62.55;100419.89;1694941;83;25664;-75
2022/03/04 01:40:22;;;;;;;56.58;27.25;;;;;;;1.27;62.44;100415.36;1695210;82;25630;-75
2022/03/04 01:42:49;;;;;;;54.80;25.70;;;;;;;1.26;62.41;100419.09;1695015;84;26218;-74
2022/03/04 01:45:16;;;;;;;54.33;25.90;;;;;;;1.27;62.31;100419.89;1695034;84;25418;-74
2022/03/04 01:47:42;;;;;;;55.12;25.90;;;;;;;1.28;62.49;100416.98;1695013;84;27315;-75
2022/03/04 01:50:10;;;;;;;51.00;25.32;;;;;;;1.28;62.53;100413.52;1695128;84;25647;-75
2022/03/04 01:52:37;;;;;;;51.77;25.57;;;;;;;1.28;62.42;100414.85;1694895;82;25577;-75
2022/03/04 01:55:06;;;;;;;54.88;25.27;;;;;;;1.28;62.68;100416.19;1695110;84;25629;-73
2022/03/04 01:57:33;;;;;;;47.63;25.87;;;;;;;1.25;62.87;100411.34;1695639;82;25581;-75
2022/03/04 01:59:59;;;;;;;48.40;26.05;;;;;;;1.23;62.80;100410.25;1663493;82;27218;-75
2022/03/04 02:02:26;;;;;;;47.83;24.72;;;;;;;1.25;63.10;100410.80;1663590;82;25682;-76
2022/03/04 02:04:53;;;;;;;48.65;25.88;;;;;;;1.26;63.17;100407.60;1695395;84;25597;-75
2022/03/04 02:07:19;;;;;;;51.02;26.70;;;;;;;1.26;63.19;100412.93;1663862;84;26161;-76
2022/03/04 02:09:46;;;;;;;55.00;25.05;;;;;;;1.27;63.15;100414.56;1695455;83;25469;-76
2022/03/04 02:12:12;;;;;;;52.85;26.48;;;;;;;1.27;63.32;100413.22;1695384;84;27327;-76
2022/03/04 02:14:39;;;;;;;53.02;26.15;;;;;;;1.28;63.34;100418.84;1695284;84;25418;-76
2022/03/04 02:17:05;;;;;;;55.52;27.50;;;;;;;1.30;63.41;100410.08;1695372;84;25560;-76
2022/03/04 02:19:32;;;;;;;50.92;24.52;;;;;;;1.30;63.43;100413.55;1663774;84;25709;-75
2022/03/04 02:22:01;;;;;;;55.03;28.38;;;;;;;1.30;63.66;100414.08;1695418;84;25577;-75
2022/03/04 02:24:30;;;;;;;;;;;;;;;1.31;63.58;100414.34;1697962;83;28024;-75
2022/03/04 02:27:02;;;;;;;55.90;26.33;;;;;;;1.32;63.92;100415.17;1695381;84;25469;-75
2022/03/04 02:29:31;;;;;;;57.53;27.98;;;;;;;1.32;63.96;100416.50;1695396;83;25493;-76
2022/03/04 02:31:57;;;;;;;62.48;28.83;;;;;;;1.32;63.94;100413.83;1694636;83;25652;-76
2022/03/04 02:34:24;;;;;;;56.10;27.77;;;;;;;1.33;64.15;100414.09;1687722;85;25391;-76
2022/03/04 02:36:50;;;;;;;60.67;27.00;;;;;;;1.30;64.19;100410.88;1674757;85;28072;-76
2022/03/04 02:39:17;;;;;;;55.33;27.07;;;;;;;1.30;64.30;100410.88;1687594;85;25549;-76
2022/03/04 02:41:44;;;;;;;52.78;27.45;;;;;;;1.32;64.20;100415.17;1687574;85;25476;-76
2022/03/04 02:44:13;;;;;;;54.13;27.98;;;;;;;1.33;64.46;100410.10;1687574;85;25632;-76
2022/03/04 02:46:41;;;;;;;52.90;27.37;;;;;;;1.33;64.56;100410.92;1687773;85;25468;-77
2022/03/04 02:49:10;;;;;;;56.25;28.12;;;;;;;1.35;64.68;100413.36;1687627;85;27316;-77
2022/03/04 02:51:37;;;;;;;60.37;27.40;;;;;;;1.36;64.92;100415.75;1687763;85;25472;-77
2022/03/04 02:54:04;;;;;;;59.65;28.92;;;;;;;1.36;65.00;100417.61;1687624;85;25651;-75
2022/03/04 02:56:32;;;;;;;56.08;27.37;;;;;;;1.37;65.16;100413.91;1674902;85;25551;-75
2022/03/04 02:58:58;;;;;;;63.75;29.72;;;;;;;1.37;65.11;100410.70;1674963;85;25647;-76
2022/03/04 03:01:25;;;;;;;64.65;30.10;;;;;;;1.39;65.34;100411.80;1687641;84;27345;-76
2022/03/04 03:03:52;;;;;;;59.70;29.85;;;;;;;1.40;65.27;100416.09;1687549;84;25563;-76
2022/03/04 03:06:18;;;;;;;60.00;30.32;;;;;;;1.40;65.32;100404.89;1687643;84;25548;-76
2022/03/04 03:08:45;;;;;;;60.98;29.50;;;;;;;1.41;65.48;100408.36;1675672;85;25715;-76
2022/03/04 03:11:12;;;;;;;61.88;29.90;;;;;;;1.41;65.61;100403.83;1687662;85;25560;-76
2022/03/04 03:13:39;;;;;;;62.27;30.65;;;;;;;1.42;65.68;100404.12;1674937;84;27943;-76
2022/03/04 03:16:05;;;;;;;63.85;32.55;;;;;;;1.42;65.87;100405.45;1687522;85;25490;-76
2022/03/04 03:18:31;;;;;;;66.77;31.17;;;;;;;1.43;66.10;100404.91;1687645;85;25596;-76
2022/03/04 03:20:58;;;;;;;61.30;32.55;;;;;;;1.43;66.14;100411.58;1687602;85;25415;-76
2022/03/04 03:23:24;;;;;;;66.62;32.35;;;;;;;1.43;66.32;100411.58;1687621;84;25383;-76
2022/03/04 03:25:51;;;;;;;62.83;29.82;;;;;;;1.44;66.43;100415.88;1674411;85;27352;-76
2022/03/04 03:28:17;;;;;;;63.87;31.65;;;;;;;1.44;66.56;100418.00;1687490;85;25627;-76
2022/03/04 03:30:44;;;;;;;62.98;30.65;;;;;;;1.44;66.74;100421.20;1687607;85;25204;-76
2022/03/04 03:33:10;;;;;;;63.48;30.80;;;;;;;1.44;66.93;100424.67;1689776;84;25620;-76
2022/03/04 03:35:38;;;;;;;68.22;31.60;;;;;;;1.43;66.94;100426.23;1692611;84;25611;-76
2022/03/04 03:38:04;;;;;;;65.83;31.77;;;;;;;1.43;66.78;100429.73;1692497;84;27986;-76
2022/03/04 03:40:30;;;;;;;62.62;32.20;;;;;;;1.44;67.08;100426.53;1692487;84;25532;-76
2022/03/04 03:42:57;;;;;;;66.30;31.77;;;;;;;1.45;67.20;100426.29;1692568;84;25545;-76
2022/03/04 03:45:23;;;;;;;62.17;31.10;;;;;;;1.45;67.26;100429.49;1692518;82;25725;-76
2022/03/04 03:47:50;;;;;;;66.92;31.77;;;;;;;1.45;67.42;100428.95;1670905;84;25518;-76
2022/03/04 03:50:17;;;;;;;67.58;33.08;;;;;;;1.45;67.43;100432.16;1692574;84;27288;-76
2022/03/04 03:52:44;;;;;;;65.87;31.77;;;;;;;1.44;67.61;100432.66;1692510;84;25673;-76
2022/03/04 03:55:11;;;;;;;63.60;32.30;;;;;;;1.45;67.45;100430.83;1692586;84;25482;-76
2022/03/04 03:57:38;;;;;;;66.85;31.68;;;;;;;1.43;67.64;100427.58;1692522;84;25633;-76
2022/03/04 04:00:07;;;;;;;65.17;31.85;;;;;;;1.46;67.67;100437.25;1692605;84;25611;-76
2022/03/04 04:02:33;;;;;;;66.72;31.15;;;;;;;1.49;67.54;100444.73;1694288;84;27412;-76
2022/03/04 04:05:00;;;;;;;61.65;30.45;;;;;;;1.51;67.36;100447.69;1694300;84;25432;-76
2022/03/04 04:07:26;;;;;;;59.70;30.20;;;;;;;1.53;67.60;100448.25;1694323;84;25382;-76
2022/03/04 04:09:53;;;;;;;62.08;30.50;;;;;;;1.54;67.71;100444.55;1694331;84;25730;-76
2022/03/04 04:12:19;;;;;;;58.60;27.37;;;;;;;1.55;67.84;100444.30;1694372;84;25577;-76
2022/03/04 04:14:45;;;;;;;54.30;27.80;;;;;;;1.56;67.93;100446.44;1694313;84;28202;-76
2022/03/04 04:17:12;;;;;;;59.27;28.77;;;;;;;1.57;68.12;100449.39;1694225;84;25508;-76
2022/03/04 04:19:38;;;;;;;52.05;26.95;;;;;;;1.58;68.14;100449.66;1694322;84;25452;-76
2022/03/04 04:22:05;;;;;;;58.55;27.77;;;;;;;1.59;68.31;100445.95;1694365;84;25536;-75
2022/03/04 04:24:31;;;;;;;56.65;27.77;;;;;;;1.59;68.30;100444.08;1694380;84;25443;-75
2022/03/04 04:26:58;;;;;;;52.75;26.70;;;;;;;1.59;68.35;100446.74;1694372;84;27336;-75
2022/03/04 04:29:24;;;;;;;53.87;28.50;;;;;;;1.61;68.23;100443.84;1694354;84;25609;-76
2022/03/04 04:31:50;;;;;;;55.23;27.50;;;;;;;1.61;68.53;100451.84;1694785;84;25466;-76
2022/03/04 04:34:19;;;;;;;47.58;25.92;;;;;;;1.61;68.57;100451.30;1713581;82;25236;-76
2022/03/04 04:36:45;;;;;;;53.60;27.15;;;;;;;1.62;68.49;100455.59;1719023;83;25493;-76
2022/03/04 04:39:12;;;;;;;54.08;25.65;;;;;;;1.64;68.64;100456.15;1719689;83;27309;-76
2022/03/04 04:41:38;;;;;;;48.55;25.85;;;;;;;1.64;68.58;100463.34;1723500;83;25530;-76
2022/03/04 04:44:05;;;;;;;49.35;24.40;;;;;;;1.65;68.52;100454.28;1724661;83;25223;-76
2022/03/04 04:46:31;;;;;;;52.17;25.80;;;;;;;1.65;68.72;100463.11;1723849;83;25548;-76
2022/03/04 04:48:58;;;;;;;45.25;24.82;;;;;;;1.66;68.70;100455.38;1723304;83;25608;-76
2022/03/04 04:51:24;;;;;;;47.03;23.67;;;;;;;1.67;68.95;100457.53;1723417;83;27991;-76
2022/03/04 04:53:52;;;;;;;50.70;25.27;;;;;;;1.68;68.95;100463.92;1723345;83;25656;-76
2022/03/04 04:56:19;;;;;;;46.85;25.00;;;;;;;1.71;69.17;100461.84;1723364;83;25411;-76
2022/03/04 04:58:46;;;;;;;47.33;23.98;;;;;;;1.68;69.32;100458.59;1723367;83;25657;-76
2022/03/04 05:01:12;;;;;;;48.95;24.45;;;;;;;1.71;69.08;100461.31;1723418;83;25607;-76
2022/03/04 05:03:39;;;;;;;43.50;22.65;;;;;;;1.72;69.31;100461.60;1723422;83;27297;-76
2022/03/04 05:06:05;;;;;;;51.58;23.02;;;;;;;1.72;69.21;100460.78;1723335;83;25446;-75
2022/03/04 05:08:32;;;;;;;44.18;24.05;;;;;;;1.74;69.41;100466.16;1723414;83;25476;-76
2022/03/04 05:10:59;;;;;;;41.53;22.48;;;;;;;1.75;69.54;100465.09;1723372;82;25802;-76
2022/03/04 05:13:25;;;;;;;45.10;22.55;;;;;;;1.74;69.63;100464.83;1723416;83;25406;-76
2022/03/04 05:15:52;;;;;;;45.58;22.42;;;;;;;1.75;69.83;100460.29;1723391;83;27928;-76
2022/03/04 05:18:18;;;;;;;48.98;22.67;;;;;;;1.77;70.00;100471.01;1723303;83;25546;-76
2022/03/04 05:20:45;;;;;;;39.78;20.20;;;;;;;1.77;69.77;100470.18;1723403;83;25546;-76
2022/03/04 05:23:58;;;;;;;48.87;22.55;;;;;;;1.77;69.94;100476.84;1723360;83;25601;-76
2022/03/04 05:25:40;;;;;;;46.88;22.48;;;;;;;1.79;70.27;100477.44;1718995;83;25562;-77
2022/03/04 05:28:07;;;;;;;41.10;21.35;;;;;;;1.78;70.45;100474.47;1723508;83;27337;-76
2022/03/04 05:30:33;;;;;;;48.38;21.80;;;;;;;1.78;70.63;100487.27;1723433;82;25461;-76
2022/03/04 05:33:00;;;;;;;51.18;22.07;;;;;;;1.77;70.70;100482.18;1721238;83;25602;-76
2022/03/04 05:35:27;;;;;;;43.75;21.12;;;;;;;1.79;70.69;100488.10;1708068;84;25557;-76
2022/03/04 05:37:53;;;;;;;42.45;20.00;;;;;;;1.79;70.97;100488.10;1707973;84;25452;-76
2022/03/04 05:40:20;;;;;;;42.45;21.55;;;;;;;1.80;71.01;100481.70;1687749;84;27993;-76
2022/03/04 05:42:46;;;;;;;53.00;21.23;;;;;;;1.83;71.12;100489.21;1687679;84;25484;-76
2022/03/04 05:45:13;;;;;;;47.48;20.82;;;;;;;1.84;70.88;100491.64;1707961;83;25612;-76
2022/03/04 05:47:40;;;;;;;47.88;20.15;;;;;;;1.88;70.95;100491.16;1687843;84;25642;-76
2022/03/04 05:50:08;;;;;;;45.10;20.95;;;;;;;1.88;71.36;100498.63;1708017;83;25398;-76
2022/03/04 05:52:35;;;;;;;45.45;19.55;;;;;;;1.89;71.43;100503.42;1707978;84;27308;-77
2022/03/04 05:55:01;;;;;;;45.28;20.27;;;;;;;1.91;71.41;100504.80;1707901;84;25401;-76
2022/03/04 05:57:28;;;;;;;44.88;21.15;;;;;;;1.92;71.43;100502.40;1707961;84;25623;-77
2022/03/04 05:59:55;;;;;;;43.15;19.75;;;;;;;1.95;71.40;100504.58;1707907;84;26282;-76
2022/03/04 06:02:24;;;;;;;40.33;19.35;;;;;;;1.98;71.38;100507.30;1707933;84;25467;-76
2022/03/04 06:04:50;;;;;;;44.42;20.30;;;;;;;2.00;71.45;100512.66;1707998;83;27920;-76
2022/03/04 06:07:17;;;;;;;49.08;19.62;;;;;;;2.03;71.62;100508.70;1707887;83;25579;-76
2022/03/04 06:09:43;;;;;;;39.00;18.92;;;;;;;2.07;71.66;100519.69;1687583;84;25670;-76
2022/03/04 06:12:10;;;;;;;35.60;18.02;;;;;;;2.09;71.61;100510.36;1709516;83;26181;-76
2022/03/04 06:14:36;;;;;;;39.27;17.65;;;;;;;2.12;71.76;100512.55;1707999;84;25455;-77
2022/03/04 06:17:04;;;;;;;36.17;17.27;;;;;;;2.17;71.96;100517.95;1687551;84;27354;-76
2022/03/04 06:19:30;;;;;;;43.90;20.62;;;;;;;2.23;72.03;100514.30;1687937;84;25612;-76
2022/03/04 06:21:57;;;;;;;41.30;18.42;;;;;;;2.27;72.01;100524.48;1708000;83;25401;-76
2022/03/04 06:24:23;;;;;;;35.90;17.85;;;;;;;2.32;72.17;100526.69;1707938;84;25742;-76
2022/03/04 06:26:50;;;;;;;40.20;17.50;;;;;;;2.33;72.21;100520.80;1707991;84;25641;-76
2022/03/04 06:29:17;;;;;;;37.00;17.57;;;;;;;2.40;72.33;100530.27;1707993;84;27335;-76
2022/03/04 06:31:43;;;;;;;42.75;17.25;;;;;;;2.49;72.45;100533.84;1720258;80;25733;-75
2022/03/04 06:34:10;;;;;;;41.55;17.70;;;;;;;2.54;72.40;100532.56;1717635;82;25574;-75
2022/03/04 06:36:38;;;;;;;34.73;17.32;;;;;;;2.61;72.43;100537.17;1717823;83;25613;-75
2022/03/04 06:39:05;;;;;;;42.13;17.82;;;;;;;2.68;72.46;100539.66;1674171;83;25659;-76
2022/03/04 06:41:31;;;;;;;41.83;18.52;;;;;;;2.74;72.34;100534.12;1748687;82;28002;-75
2022/03/04 06:43:58;;;;;;;36.05;18.40;;;;;;;2.79;72.43;100529.34;1741472;82;25728;-75
2022/03/04 06:46:25;;;;;;;41.88;18.67;;;;;;;2.87;72.28;100541.46;1749379;82;25449;-76
2022/03/04 06:48:51;;;;;;;34.05;16.85;;;;;;;2.93;72.31;100544.48;1749708;82;26336;-76
2022/03/04 06:51:18;;;;;;;35.92;17.10;;;;;;;2.98;72.21;100544.52;1687751;85;25697;-76
2022/03/04 06:53:45;;;;;;;38.60;15.58;;;;;;;3.05;72.26;100553.14;1687740;85;27463;-76
2022/03/04 06:56:13;;;;;;;33.08;15.00;;;;;;;3.10;72.22;100555.86;1687549;85;25716;-76
2022/03/04 06:58:40;;;;;;;34.98;15.10;;;;;;;3.18;72.10;100546.56;1687636;84;25647;-76
2022/03/04 07:01:06;;;;;;;27.40;15.10;;;;;;;3.21;71.83;100552.75;1653579;85;26084;-76
2022/03/04 07:03:33;;;;;;;27.45;15.13;;;;;;;3.24;71.72;100556.80;1699749;83;25392;-76
2022/03/04 07:06:00;;;;;;;30.45;16.05;;;;;;;3.30;71.68;100559.27;1679074;83;27847;-76
2022/03/04 07:08:29;;;;;;;30.45;16.42;;;;;;;3.34;71.64;100558.23;1687559;82;25650;-75
2022/03/04 07:10:57;;;;;;;35.45;16.90;;;;;;;3.36;71.46;100560.91;1651915;84;25672;-77
2022/03/04 07:13:25;;;;;;;32.08;14.80;;;;;;;3.38;71.35;100560.66;1658462;84;25629;-76
2022/03/04 07:15:52;;;;;;;24.32;14.30;;;;;;;3.40;71.44;100561.20;1680180;84;25751;-76
2022/03/04 07:18:22;;;;;;;27.65;12.88;;;;;;;3.43;71.34;100571.40;1679590;83;27980;-75
2022/03/04 07:20:50;;;;;;;20.52;12.18;;;;;;;3.41;71.17;100560.16;1674357;84;26655;-76
2022/03/04 07:23:20;;;;;;;23.50;14.55;;;;;;;3.45;70.94;100571.14;1651582;85;25666;-76
2022/03/04 07:25:46;;;;;;;22.60;13.58;;;;;;;3.44;70.94;100571.69;1670659;85;25756;-75
2022/03/04 07:28:14;;;;;;;30.23;14.33;;;;;;;3.44;70.76;100569.02;1637601;86;25597;-76
2022/03/04 07:30:41;;;;;;;24.65;14.07;;;;;;;3.45;70.78;100569.81;1671000;84;27415;-76
2022/03/04 07:33:10;;;;;;;23.90;14.00;;;;;;;3.47;70.90;100583.19;1663454;85;25827;-76
2022/03/04 07:35:44;;;;;;;27.00;13.65;;;;;;;3.45;70.75;100579.97;1690095;84;25779;-75
2022/03/04 07:38:28;;;;;;;23.90;13.08;;;;;;;3.49;70.83;100580.27;1732403;82;25701;-74
2022/03/04 07:40:58;;;;;;;18.55;12.55;;;;;;;3.45;70.74;100580.50;1742595;82;25763;-73
2022/03/04 07:43:23;;;;;;;24.32;12.55;;;;;;;3.45;70.95;100582.64;1739344;82;27356;-73
2022/03/04 07:45:50;;;;;;;23.38;13.50;;;;;;;3.44;71.07;100581.05;1714725;82;26410;-74
2022/03/04 07:48:18;;;;;;;23.80;13.35;;;;;;;3.43;71.18;100581.30;1739441;82;25783;-74
2022/03/04 07:50:45;;;;;;;23.12;13.35;;;;;;;3.43;71.12;100584.77;1739528;82;25734;-75
2022/03/04 07:53:12;;;;;;;22.48;12.50;;;;;;;3.42;71.25;100581.80;1739916;82;25719;-74
2022/03/04 07:55:39;;;;;;;21.33;12.33;;;;;;;3.39;71.30;100600.23;1739967;82;27342;-75
2022/03/04 07:58:06;;;;;;;20.52;13.28;;;;;;;3.38;71.64;100598.63;1739411;82;25590;-74
2022/03/04 08:00:32;;;;;;;21.62;13.68;;;;;;;3.36;71.84;100597.01;1739984;82;25738;-74
2022/03/04 08:02:59;;;;;;;19.45;13.75;;;;;;;3.37;72.03;100595.13;1758547;81;25590;-74
2022/03/04 08:05:26;;;;;;;22.95;13.85;;;;;;;3.38;72.33;100598.63;1770444;79;25822;-73
2022/03/04 08:07:57;;;;;;;25.05;13.70;;;;;;;3.42;72.52;100603.20;1772007;79;27443;-75
2022/03/04 08:10:23;;;;;;;22.32;13.25;;;;;;;3.47;72.70;100595.22;1704121;83;25709;-74
2022/03/04 08:12:49;;;;;;;17.70;11.68;;;;;;;3.55;72.83;100596.64;1794223;79;25728;-73
2022/03/04 08:15:16;;;;;;;21.20;13.55;;;;;;;3.61;72.94;100598.82;1794211;79;25745;-74
2022/03/04 08:17:44;;;;;;;19.92;11.95;;;;;;;3.62;72.87;100601.24;1713742;82;25809;-74
2022/03/04 08:20:11;;;;;;;19.17;12.30;;;;;;;3.65;72.80;100606.63;1794202;79;27504;-74
2022/03/04 08:22:38;;;;;;;17.80;11.70;;;;;;;3.66;72.41;100610.39;1700193;83;25733;-75
2022/03/04 08:25:06;;;;;;;18.12;12.18;;;;;;;3.66;72.45;100609.56;1716879;82;25758;-75
2022/03/04 08:27:41;;;;;;;37.75;20.37;;;;;;;3.64;72.51;100613.03;1684188;84;25720;-75
2022/03/04 08:30:11;;;;;;;24.12;14.70;;;;;;;3.63;72.58;100616.25;1699286;83;25703;-74
2022/03/04 08:32:41;;;;;;;25.40;14.87;;;;;;;3.61;72.48;100625.06;1697971;83;27376;-75
2022/03/04 08:35:09;;;;;;;17.77;11.20;;;;;;;3.55;72.48;100627.41;1641592;86;25880;-75
2022/03/04 08:37:43;;;;;;;16.57;10.85;;;;;;;3.55;72.57;100631.41;1635787;86;25730;-76
2022/03/04 08:40:12;;;;;;;16.87;11.55;;;;;;;3.49;72.56;100635.09;1630189;87;25734;-74
2022/03/04 08:42:42;;;;;;;16.05;9.75;;;;;;;3.44;72.51;100639.05;1632115;86;25820;-75
2022/03/04 08:45:11;;;;;;;15.00;10.45;;;;;;;3.33;72.14;100634.94;1632053;87;27468;-74
2022/03/04 08:47:38;;;;;;;16.25;9.85;;;;;;;3.25;72.11;100639.94;1632274;86;25845;-75
2022/03/04 08:50:07;;;;;;;14.00;8.75;;;;;;;3.15;72.20;100638.78;1630650;87;25789;-75
2022/03/04 08:52:33;;;;;;;13.65;9.33;;;;;;;3.07;72.32;100641.09;1631882;86;26644;-74
2022/03/04 08:55:00;;;;;;;15.45;9.53;;;;;;;3.02;72.53;100647.18;1631882;87;25793;-74
2022/03/04 08:57:28;;;;;;;14.00;10.03;;;;;;;2.97;72.55;100647.13;1631948;87;27319;-74
2022/03/04 08:59:55;;;;;;;14.78;10.20;;;;;;;2.93;72.72;100643.34;1632078;87;25859;-75
2022/03/04 09:02:21;;;;;;;16.97;11.43;;;;;;;2.90;72.71;100649.18;1632162;87;25869;-75
2022/03/04 09:04:47;;;;;;;17.30;10.58;;;;;;;2.86;72.81;100652.88;1609975;87;26453;-76
2022/03/04 09:07:14;;;;;;;16.93;10.40;;;;;;;2.82;72.91;100654.95;1690239;84;25680;-75
2022/03/04 09:09:40;;;;;;;17.48;11.12;;;;;;;2.76;73.06;100646.87;1696805;84;27066;-74
2022/03/04 09:12:08;;;;;;;16.67;10.93;;;;;;;2.75;73.06;100657.80;1695110;83;25847;-75
2022/03/04 09:14:35;;;;;;;18.60;11.65;;;;;;;2.70;73.20;100657.20;1695057;84;25876;-75
2022/03/04 09:17:02;;;;;;;16.75;11.35;;;;;;;2.66;73.31;100656.09;1695039;84;26255;-74
2022/03/04 09:19:30;;;;;;;17.50;11.85;;;;;;;2.58;73.20;100655.98;1694947;84;25733;-74
2022/03/04 09:21:57;;;;;;;17.87;11.43;;;;;;;2.53;73.44;100656.44;1695037;84;27395;-75
2022/03/04 09:24:25;;;;;;;17.82;11.55;;;;;;;2.50;73.67;100656.39;1694936;84;25771;-76
2022/03/04 09:26:52;;;;;;;25.43;16.07;;;;;;;2.48;73.84;100659.05;1695118;84;25656;-76
2022/03/04 09:29:18;;;;;;;27.85;16.67;;;;;;;2.45;74.00;100654.98;1665254;84;25682;-76
2022/03/04 09:31:45;;;;;;;19.27;12.95;;;;;;;2.45;74.21;100660.33;1695206;84;25848;-78
2022/03/04 09:34:11;;;;;;;19.00;12.55;;;;;;;2.45;74.46;100664.87;1695217;84;27358;-75
2022/03/04 09:36:38;;;;;;;20.30;13.32;;;;;;;2.45;74.65;100665.67;1694301;83;25761;-75
2022/03/04 09:39:05;;;;;;;20.68;12.80;;;;;;;2.47;74.83;100669.43;1655270;85;25484;-76
2022/03/04 09:41:32;;;;;;;19.25;13.20;;;;;;;2.50;74.85;100662.27;1673273;85;25753;-73
2022/03/04 09:43:59;;;;;;;22.15;14.00;;;;;;;2.53;75.19;100666.59;1653716;85;25735;-73
2022/03/04 09:46:25;;;;;;;25.72;15.45;;;;;;;2.53;75.02;100665.79;1673223;85;28029;-70
2022/03/04 09:48:53;;;;;;;22.65;15.20;;;;;;;2.55;75.32;100677.83;1673167;85;25715;-71
2022/03/04 09:51:21;;;;;;;22.20;14.43;;;;;;;2.58;75.53;100674.67;1683169;84;25706;-71
2022/03/04 09:53:50;;;;;;;23.55;14.45;;;;;;;2.63;75.54;100675.28;1689975;84;25665;-72
2022/03/04 09:56:19;;;;;;;20.95;14.20;;;;;;;2.65;75.62;100671.02;1697597;83;25653;-71
2022/03/04 09:58:47;;;;;;;24.02;14.85;;;;;;;2.70;75.58;100672.43;1701382;83;27519;-71
2022/03/04 10:01:15;;;;;;;23.02;14.28;;;;;;;2.72;75.75;100671.65;1701472;84;25687;-71
2022/03/04 10:03:52;;;;;;;23.50;14.33;;;;;;;2.75;75.71;100670.63;1701410;84;25742;-71
2022/03/04 10:06:21;;;;;;;24.82;15.10;;;;;;;2.83;76.40;100668.06;1701503;84;26183;-72
2022/03/04 10:08:52;;;;;;;21.33;14.53;;;;;;;2.96;76.58;100673.05;1702313;83;25764;-72
2022/03/04 10:11:30;;;;;;;22.67;13.60;;;;;;;3.07;76.79;100672.62;1701498;84;27324;-70
2022/03/04 10:14:01;;;;;;;24.57;14.03;;;;;;;3.22;76.82;100665.32;1701640;84;25667;-71
2022/03/04 10:16:35;;;;;;;21.85;14.53;;;;;;;3.34;76.95;100670.53;1700234;84;25703;-71
2022/03/04 10:19:18;;;;;;;24.40;15.08;;;;;;;3.47;76.83;100667.44;1700529;84;25696;-71
2022/03/04 10:21:52;;;;;;;26.52;15.45;;;;;;;3.53;76.64;100663.77;1689546;84;25718;-71
2022/03/04 10:24:23;;;;;;;26.55;15.90;;;;;;;3.66;76.19;100667.08;1686805;84;27316;-70
2022/03/04 10:27:04;;;;;;;34.92;18.98;;;;;;;3.74;76.06;100668.77;1685806;84;25771;-71
2022/03/04 10:29:35;;;;;;;34.48;18.92;;;;;;;3.78;75.79;100662.91;1673851;84;25734;-71
2022/03/04 10:32:24;;;;;;;36.70;20.30;;;;;;;3.79;75.68;100660.52;1673421;85;25653;-73
2022/03/04 10:35:06;;;;;;;35.28;21.12;;;;;;;3.84;75.94;100662.70;1649665;86;25749;-74
2022/03/04 10:37:48;;;;;;;37.93;20.65;;;;;;;3.93;75.72;100657.69;1630635;86;27335;-74
2022/03/04 10:40:24;;;;;;;37.28;21.12;;;;;;;4.08;75.97;100663.70;1662904;86;25441;-73
2022/03/04 10:42:55;;;;;;;33.20;20.45;;;;;;;4.21;75.82;100666.48;1706221;83;25966;-73
2022/03/04 10:45:27;;;;;;;34.15;19.85;;;;;;;4.23;75.43;100668.36;1707594;84;26500;-73
2022/03/04 10:47:58;;;;;;;35.35;20.45;;;;;;;4.20;74.85;100666.99;1707677;84;25929;-73
2022/03/04 10:50:49;;;;;;;31.00;18.98;;;;;;;4.15;74.33;100664.28;1692516;84;27390;-73
2022/03/04 10:53:22;;;;;;;34.27;20.37;;;;;;;4.16;74.22;100665.91;1639838;86;25828;-73
2022/03/04 10:56:04;;;;;;;37.67;18.45;;;;;;;4.17;74.45;100670.20;1708013;83;25810;-73
2022/03/04 10:58:39;;;;;;;35.52;19.50;;;;;;;4.19;74.45;100672.60;1707567;84;25866;-73
2022/03/04 11:01:11;;;;;;;31.57;19.05;;;;;;;4.20;73.94;100669.67;1707673;84;25676;-73
2022/03/04 11:03:41;;;;;;;33.15;19.23;;;;;;;4.19;74.19;100671.27;1707650;84;27488;-75
2022/03/04 11:06:11;;;;;;;;;;;;;;;4.22;74.05;100680.13;1710047;84;25680;-74
2022/03/04 11:08:38;;;;;;;25.17;15.23;;;;;;;4.23;74.13;100679.08;1708201;84;25696;-74
2022/03/04 11:11:08;;;;;;;22.98;14.60;;;;;;;4.14;73.74;100674.73;1718677;82;25612;-73
2022/03/04 11:13:36;;;;;;;28.15;15.98;;;;;;;4.15;73.90;100679.00;1740528;82;25692;-73
2022/03/04 11:16:06;;;;;;;23.07;13.28;;;;;;;4.28;75.24;100680.45;1740312;82;27219;-74
2022/03/04 11:18:35;;;;;;;18.80;12.13;;;;;;;5.22;78.53;100681.45;1740498;82;25761;-74
2022/03/04 11:21:07;;;;;;;19.27;12.20;;;;;;;5.85;76.94;100677.83;1741858;82;25713;-72